sensor_id;sensor_type;location;lat;lon;timestamp;P1;durP1;ratioP1;P2;durP2;ratioP2
1410;SDS011;700;51.906;8.404;2023-07-24T00:04:08;2.90;;;2.50;;
1410;SDS011;700;51.906;8.404;2023-07-24T00:09:08;3.53;;;2.80;;
1410;SDS011;700;51.906;8.404;2023-07-24T00:14:09;2.80;;;2.60;;
1410;SDS011;700;51.906;8.404;2023-07-24T00:19:12;6.20;;;3.67;;
1410;SDS011;700;51.906;8.404;2023-07-24T00:24:15;2.90;;;2.60;;
1410;SDS011;700;51.906;8.404;2023-07-24T00:29:16;3.17;;;2.83;;
1410;SDS011;700;51.906;8.404;2023-07-24T00:34:19;3.60;;;2.80;;
1410;SDS011;700;51.906;8.404;2023-07-24T00:39:22;2.77;;;2.50;;
1410;SDS011;700;51.906;8.404;2023-07-24T00:44:22;3.47;;;2.70;;
1410;SDS011;700;51.906;8.404;2023-07-24T00:49:23;2.67;;;2.43;;
1410;SDS011;700;51.906;8.404;2023-07-24T00:54:24;3.90;;;2.67;;
1410;SDS011;700;51.906;8.404;2023-07-24T00:59:26;3.03;;;2.73;;
1410;SDS011;700;51.906;8.404;2023-07-24T01:04:29;3.33;;;2.63;;
1410;SDS011;700;51.906;8.404;2023-07-24T01:09:32;2.80;;;2.47;;
1410;SDS011;700;51.906;8.404;2023-07-24T01:14:38;3.00;;;2.70;;
1410;SDS011;700;51.906;8.404;2023-07-24T01:19:47;3.50;;;2.70;;
1410;SDS011;700;51.906;8.404;2023-07-24T01:30:17;4.80;;;3.57;;
1410;SDS011;700;51.906;8.404;2023-07-24T01:35:19;3.30;;;2.93;;
1410;SDS011;700;51.906;8.404;2023-07-24T01:40:20;5.93;;;3.10;;
1410;SDS011;700;51.906;8.404;2023-07-24T01:45:24;4.40;;;3.20;;
1410;SDS011;700;51.906;8.404;2023-07-24T01:50:25;3.67;;;2.90;;
1410;SDS011;700;51.906;8.404;2023-07-24T01:55:25;4.67;;;3.20;;
1410;SDS011;700;51.906;8.404;2023-07-24T02:00:26;5.60;;;3.80;;
1410;SDS011;700;51.906;8.404;2023-07-24T02:05:29;4.07;;;2.97;;
1410;SDS011;700;51.906;8.404;2023-07-24T02:10:32;5.83;;;3.03;;
1410;SDS011;700;51.906;8.404;2023-07-24T02:15:38;5.17;;;3.47;;
1410;SDS011;700;51.906;8.404;2023-07-24T02:20:40;3.63;;;3.10;;
1410;SDS011;700;51.906;8.404;2023-07-24T02:25:41;6.07;;;3.30;;
1410;SDS011;700;51.906;8.404;2023-07-24T02:30:45;3.83;;;3.43;;
1410;SDS011;700;51.906;8.404;2023-07-24T02:35:51;3.00;;;2.70;;
1410;SDS011;700;51.906;8.404;2023-07-24T02:40:56;6.23;;;3.33;;
1410;SDS011;700;51.906;8.404;2023-07-24T02:46:02;3.70;;;3.10;;
1410;SDS011;700;51.906;8.404;2023-07-24T02:51:03;5.13;;;3.10;;
1410;SDS011;700;51.906;8.404;2023-07-24T02:56:03;4.77;;;4.33;;
1410;SDS011;700;51.906;8.404;2023-07-24T03:01:07;4.17;;;3.77;;
1410;SDS011;700;51.906;8.404;2023-07-24T03:06:08;3.70;;;3.17;;
1410;SDS011;700;51.906;8.404;2023-07-24T03:11:08;4.47;;;4.00;;
1410;SDS011;700;51.906;8.404;2023-07-24T03:16:09;4.80;;;3.50;;
1410;SDS011;700;51.906;8.404;2023-07-24T03:21:10;4.30;;;3.70;;
1410;SDS011;700;51.906;8.404;2023-07-24T03:26:15;3.80;;;3.50;;
1410;SDS011;700;51.906;8.404;2023-07-24T03:31:21;5.90;;;4.00;;
1410;SDS011;700;51.906;8.404;2023-07-24T03:36:22;4.90;;;3.80;;
1410;SDS011;700;51.906;8.404;2023-07-24T03:41:27;4.27;;;3.13;;
1410;SDS011;700;51.906;8.404;2023-07-24T03:46:28;6.80;;;4.03;;
1410;SDS011;700;51.906;8.404;2023-07-24T03:51:31;4.13;;;3.43;;
1410;SDS011;700;51.906;8.404;2023-07-24T03:56:35;9.30;;;3.93;;
1410;SDS011;700;51.906;8.404;2023-07-24T04:01:36;4.77;;;3.03;;
1410;SDS011;700;51.906;8.404;2023-07-24T04:06:36;4.23;;;3.10;;
1410;SDS011;700;51.906;8.404;2023-07-24T04:11:37;3.80;;;3.07;;
1410;SDS011;700;51.906;8.404;2023-07-24T04:16:38;3.77;;;3.40;;
1410;SDS011;700;51.906;8.404;2023-07-24T04:21:41;3.50;;;2.83;;
1410;SDS011;700;51.906;8.404;2023-07-24T04:26:41;4.13;;;3.23;;
1410;SDS011;700;51.906;8.404;2023-07-24T04:31:45;3.67;;;2.87;;
1410;SDS011;700;51.906;8.404;2023-07-24T04:36:45;4.50;;;3.20;;
1410;SDS011;700;51.906;8.404;2023-07-24T04:41:46;5.13;;;3.73;;
1410;SDS011;700;51.906;8.404;2023-07-24T04:46:49;4.97;;;3.07;;
1410;SDS011;700;51.906;8.404;2023-07-24T04:51:52;5.30;;;3.70;;
1410;SDS011;700;51.906;8.404;2023-07-24T04:56:52;4.53;;;3.03;;
1410;SDS011;700;51.906;8.404;2023-07-24T05:01:53;3.77;;;3.07;;
1410;SDS011;700;51.906;8.404;2023-07-24T05:06:54;5.50;;;3.60;;
1410;SDS011;700;51.906;8.404;2023-07-24T05:11:54;8.33;;;3.60;;
1410;SDS011;700;51.906;8.404;2023-07-24T05:16:55;7.90;;;4.77;;
1410;SDS011;700;51.906;8.404;2023-07-24T05:21:58;4.60;;;3.50;;
1410;SDS011;700;51.906;8.404;2023-07-24T05:26:59;6.60;;;3.60;;
1410;SDS011;700;51.906;8.404;2023-07-24T05:31:59;7.00;;;3.80;;
1410;SDS011;700;51.906;8.404;2023-07-24T05:37:00;4.60;;;3.40;;
1410;SDS011;700;51.906;8.404;2023-07-24T05:42:01;4.47;;;3.43;;
1410;SDS011;700;51.906;8.404;2023-07-24T05:47:02;4.60;;;3.23;;
1410;SDS011;700;51.906;8.404;2023-07-24T05:52:05;5.33;;;3.83;;
1410;SDS011;700;51.906;8.404;2023-07-24T05:57:06;6.77;;;4.47;;
1410;SDS011;700;51.906;8.404;2023-07-24T06:02:07;6.23;;;3.50;;
1410;SDS011;700;51.906;8.404;2023-07-24T06:07:08;5.77;;;4.00;;
1410;SDS011;700;51.906;8.404;2023-07-24T06:12:09;5.80;;;3.80;;
1410;SDS011;700;51.906;8.404;2023-07-24T06:17:09;9.30;;;4.20;;
1410;SDS011;700;51.906;8.404;2023-07-24T06:22:12;5.30;;;4.43;;
1410;SDS011;700;51.906;8.404;2023-07-24T06:27:18;5.20;;;4.33;;
1410;SDS011;700;51.906;8.404;2023-07-24T06:32:19;4.50;;;3.97;;
1410;SDS011;700;51.906;8.404;2023-07-24T06:37:19;6.87;;;4.90;;
1410;SDS011;700;51.906;8.404;2023-07-24T06:42:20;5.50;;;4.30;;
1410;SDS011;700;51.906;8.404;2023-07-24T06:47:20;5.60;;;4.67;;
1410;SDS011;700;51.906;8.404;2023-07-24T06:52:24;5.10;;;4.40;;
1410;SDS011;700;51.906;8.404;2023-07-24T06:57:26;5.73;;;4.10;;
1410;SDS011;700;51.906;8.404;2023-07-24T07:02:27;4.87;;;3.97;;
1410;SDS011;700;51.906;8.404;2023-07-24T07:07:28;6.07;;;3.97;;
1410;SDS011;700;51.906;8.404;2023-07-24T07:12:31;6.70;;;4.93;;
1410;SDS011;700;51.906;8.404;2023-07-24T07:17:32;5.43;;;4.20;;
1410;SDS011;700;51.906;8.404;2023-07-24T07:22:35;4.37;;;3.97;;
1410;SDS011;700;51.906;8.404;2023-07-24T07:27:35;6.13;;;4.87;;
1410;SDS011;700;51.906;8.404;2023-07-24T07:32:36;5.43;;;4.57;;
1410;SDS011;700;51.906;8.404;2023-07-24T07:37:36;9.77;;;5.30;;
1410;SDS011;700;51.906;8.404;2023-07-24T07:42:37;5.00;;;4.40;;
1410;SDS011;700;51.906;8.404;2023-07-24T07:47:38;6.00;;;4.53;;
1410;SDS011;700;51.906;8.404;2023-07-24T07:52:39;5.77;;;4.60;;
1410;SDS011;700;51.906;8.404;2023-07-24T07:57:39;5.73;;;3.70;;
1410;SDS011;700;51.906;8.404;2023-07-24T08:02:42;5.57;;;5.00;;
1410;SDS011;700;51.906;8.404;2023-07-24T08:07:43;4.80;;;3.70;;
1410;SDS011;700;51.906;8.404;2023-07-24T08:12:46;5.10;;;4.60;;
1410;SDS011;700;51.906;8.404;2023-07-24T08:17:47;5.07;;;4.13;;
1410;SDS011;700;51.906;8.404;2023-07-24T08:22:52;4.93;;;4.30;;
1410;SDS011;700;51.906;8.404;2023-07-24T08:27:52;4.33;;;3.93;;
1410;SDS011;700;51.906;8.404;2023-07-24T08:32:55;5.30;;;4.60;;
1410;SDS011;700;51.906;8.404;2023-07-24T08:37:56;5.40;;;4.90;;
1410;SDS011;700;51.906;8.404;2023-07-24T08:42:57;5.17;;;4.67;;
1410;SDS011;700;51.906;8.404;2023-07-24T08:48:00;6.17;;;4.53;;
1410;SDS011;700;51.906;8.404;2023-07-24T08:53:05;5.73;;;5.23;;
1410;SDS011;700;51.906;8.404;2023-07-24T08:58:08;5.90;;;5.00;;
1410;SDS011;700;51.906;8.404;2023-07-24T09:03:09;5.60;;;5.07;;
1410;SDS011;700;51.906;8.404;2023-07-24T09:08:14;8.83;;;4.90;;
1410;SDS011;700;51.906;8.404;2023-07-24T09:13:17;6.50;;;4.90;;
1410;SDS011;700;51.906;8.404;2023-07-24T09:18:20;8.80;;;5.40;;
1410;SDS011;700;51.906;8.404;2023-07-24T09:23:27;7.30;;;5.83;;
1410;SDS011;700;51.906;8.404;2023-07-24T09:28:31;5.37;;;4.60;;
1410;SDS011;700;51.906;8.404;2023-07-24T09:33:36;5.73;;;5.13;;
1410;SDS011;700;51.906;8.404;2023-07-24T09:38:38;5.83;;;5.23;;
1410;SDS011;700;51.906;8.404;2023-07-24T09:43:41;4.53;;;3.77;;
1410;SDS011;700;51.906;8.404;2023-07-24T09:48:42;4.33;;;3.73;;
1410;SDS011;700;51.906;8.404;2023-07-24T09:53:47;4.10;;;3.70;;
1410;SDS011;700;51.906;8.404;2023-07-24T09:58:55;6.77;;;4.50;;
1410;SDS011;700;51.906;8.404;2023-07-24T10:03:57;4.37;;;3.83;;
1410;SDS011;700;51.906;8.404;2023-07-24T10:08:59;5.03;;;4.63;;
1410;SDS011;700;51.906;8.404;2023-07-24T10:14:00;6.37;;;5.40;;
1410;SDS011;700;51.906;8.404;2023-07-24T10:19:12;6.13;;;5.57;;
1410;SDS011;700;51.906;8.404;2023-07-24T10:24:18;6.80;;;5.53;;
1410;SDS011;700;51.906;8.404;2023-07-24T10:29:24;5.53;;;5.03;;
1410;SDS011;700;51.906;8.404;2023-07-24T10:34:35;7.53;;;6.70;;
1410;SDS011;700;51.906;8.404;2023-07-24T10:39:37;6.90;;;6.20;;
1410;SDS011;700;51.906;8.404;2023-07-24T10:44:43;10.13;;;6.30;;
1410;SDS011;700;51.906;8.404;2023-07-24T10:49:52;5.93;;;4.53;;
1410;SDS011;700;51.906;8.404;2023-07-24T10:54:53;3.90;;;3.57;;
1410;SDS011;700;51.906;8.404;2023-07-24T10:59:55;4.93;;;3.90;;
1410;SDS011;700;51.906;8.404;2023-07-24T11:04:58;4.63;;;4.23;;
1410;SDS011;700;51.906;8.404;2023-07-24T11:10:00;4.37;;;3.97;;
1410;SDS011;700;51.906;8.404;2023-07-24T11:15:03;5.53;;;5.03;;
1410;SDS011;700;51.906;8.404;2023-07-24T11:20:07;4.07;;;3.63;;
1410;SDS011;700;51.906;8.404;2023-07-24T11:25:17;7.13;;;4.07;;
1410;SDS011;700;51.906;8.404;2023-07-24T11:30:21;4.40;;;3.57;;
1410;SDS011;700;51.906;8.404;2023-07-24T11:35:24;3.60;;;3.27;;
1410;SDS011;700;51.906;8.404;2023-07-24T11:40:32;4.17;;;3.63;;
1410;SDS011;700;51.906;8.404;2023-07-24T11:45:42;3.70;;;3.37;;
1410;SDS011;700;51.906;8.404;2023-07-24T11:50:47;4.50;;;3.10;;
1410;SDS011;700;51.906;8.404;2023-07-24T11:55:49;3.70;;;3.20;;
1410;SDS011;700;51.906;8.404;2023-07-24T12:00:53;3.10;;;2.80;;
1410;SDS011;700;51.906;8.404;2023-07-24T12:05:54;3.07;;;2.60;;
1410;SDS011;700;51.906;8.404;2023-07-24T12:10:55;2.83;;;2.13;;
1410;SDS011;700;51.906;8.404;2023-07-24T12:15:58;4.23;;;3.13;;
1410;SDS011;700;51.906;8.404;2023-07-24T12:20:59;3.50;;;3.07;;
1410;SDS011;700;51.906;8.404;2023-07-24T12:26:00;3.30;;;2.83;;
1410;SDS011;700;51.906;8.404;2023-07-24T12:31:03;3.57;;;3.00;;
1410;SDS011;700;51.906;8.404;2023-07-24T12:36:04;3.10;;;2.80;;
1410;SDS011;700;51.906;8.404;2023-07-24T12:41:05;5.43;;;3.80;;
1410;SDS011;700;51.906;8.404;2023-07-24T12:46:05;5.47;;;4.93;;
1410;SDS011;700;51.906;8.404;2023-07-24T12:51:06;6.57;;;4.50;;
1410;SDS011;700;51.906;8.404;2023-07-24T12:56:07;5.77;;;5.17;;
1410;SDS011;700;51.906;8.404;2023-07-24T13:01:07;2.80;;;2.60;;
1410;SDS011;700;51.906;8.404;2023-07-24T13:06:08;7.03;;;4.07;;
1410;SDS011;700;51.906;8.404;2023-07-24T13:11:11;6.80;;;4.87;;
1410;SDS011;700;51.906;8.404;2023-07-24T13:16:11;4.93;;;4.47;;
1410;SDS011;700;51.906;8.404;2023-07-24T13:21:12;4.60;;;4.17;;
1410;SDS011;700;51.906;8.404;2023-07-24T13:26:14;6.27;;;5.30;;
1410;SDS011;700;51.906;8.404;2023-07-24T13:31:19;3.40;;;2.90;;
1410;SDS011;700;51.906;8.404;2023-07-24T13:36:23;2.93;;;2.57;;
1410;SDS011;700;51.906;8.404;2023-07-24T13:41:23;3.70;;;3.00;;
1410;SDS011;700;51.906;8.404;2023-07-24T13:46:24;3.37;;;2.40;;
1410;SDS011;700;51.906;8.404;2023-07-24T13:51:29;5.83;;;2.70;;
1410;SDS011;700;51.906;8.404;2023-07-24T13:56:32;3.20;;;2.30;;
1410;SDS011;700;51.906;8.404;2023-07-24T14:01:35;2.50;;;1.97;;
1410;SDS011;700;51.906;8.404;2023-07-24T14:06:36;2.60;;;1.60;;
1410;SDS011;700;51.906;8.404;2023-07-24T14:11:36;2.03;;;1.70;;
1410;SDS011;700;51.906;8.404;2023-07-24T14:16:39;2.63;;;1.80;;
1410;SDS011;700;51.906;8.404;2023-07-24T14:21:40;2.33;;;2.03;;
1410;SDS011;700;51.906;8.404;2023-07-24T14:26:43;1.87;;;1.47;;
1410;SDS011;700;51.906;8.404;2023-07-24T14:31:44;3.30;;;1.50;;
1410;SDS011;700;51.906;8.404;2023-07-24T14:36:47;2.17;;;1.20;;
1410;SDS011;700;51.906;8.404;2023-07-24T14:41:50;3.20;;;1.70;;
1410;SDS011;700;51.906;8.404;2023-07-24T14:46:51;1.60;;;1.30;;
1410;SDS011;700;51.906;8.404;2023-07-24T14:51:53;2.47;;;2.00;;
1410;SDS011;700;51.906;8.404;2023-07-24T14:56:57;2.30;;;1.20;;
1410;SDS011;700;51.906;8.404;2023-07-24T15:01:58;2.63;;;1.40;;
1410;SDS011;700;51.906;8.404;2023-07-24T15:06:58;2.23;;;1.20;;
1410;SDS011;700;51.906;8.404;2023-07-24T15:12:01;2.07;;;1.50;;
1410;SDS011;700;51.906;8.404;2023-07-24T15:17:03;2.97;;;2.40;;
1410;SDS011;700;51.906;8.404;2023-07-24T15:22:04;2.23;;;1.97;;
1410;SDS011;700;51.906;8.404;2023-07-24T15:27:07;2.13;;;1.60;;
1410;SDS011;700;51.906;8.404;2023-07-24T15:32:08;2.60;;;1.90;;
1410;SDS011;700;51.906;8.404;2023-07-24T15:37:12;2.20;;;1.93;;
1410;SDS011;700;51.906;8.404;2023-07-24T15:42:14;2.47;;;2.10;;
1410;SDS011;700;51.906;8.404;2023-07-24T15:47:17;2.63;;;2.23;;
1410;SDS011;700;51.906;8.404;2023-07-24T15:52:20;5.00;;;3.00;;
1410;SDS011;700;51.906;8.404;2023-07-24T15:57:23;3.40;;;2.20;;
1410;SDS011;700;51.906;8.404;2023-07-24T16:02:24;8.53;;;3.43;;
1410;SDS011;700;51.906;8.404;2023-07-24T16:07:24;3.97;;;3.60;;
1410;SDS011;700;51.906;8.404;2023-07-24T16:12:25;3.10;;;2.80;;
1410;SDS011;700;51.906;8.404;2023-07-24T16:17:26;3.50;;;3.20;;
1410;SDS011;700;51.906;8.404;2023-07-24T16:22:26;4.23;;;3.83;;
1410;SDS011;700;51.906;8.404;2023-07-24T16:27:29;3.57;;;3.27;;
1410;SDS011;700;51.906;8.404;2023-07-24T16:32:30;4.10;;;3.70;;
1410;SDS011;700;51.906;8.404;2023-07-24T16:37:30;3.90;;;3.50;;
1410;SDS011;700;51.906;8.404;2023-07-24T16:42:34;5.17;;;3.73;;
1410;SDS011;700;51.906;8.404;2023-07-24T16:47:35;4.50;;;4.10;;
1410;SDS011;700;51.906;8.404;2023-07-24T16:52:36;5.00;;;4.50;;
1410;SDS011;700;51.906;8.404;2023-07-24T16:57:41;4.57;;;4.17;;
1410;SDS011;700;51.906;8.404;2023-07-24T17:02:42;6.00;;;5.43;;
1410;SDS011;700;51.906;8.404;2023-07-24T17:07:43;6.70;;;5.50;;
1410;SDS011;700;51.906;8.404;2023-07-24T17:12:44;8.20;;;7.10;;
1410;SDS011;700;51.906;8.404;2023-07-24T17:17:47;8.07;;;6.83;;
1410;SDS011;700;51.906;8.404;2023-07-24T17:22:48;7.10;;;6.37;;
1410;SDS011;700;51.906;8.404;2023-07-24T17:27:48;7.10;;;6.50;;
1410;SDS011;700;51.906;8.404;2023-07-24T17:32:51;7.23;;;6.60;;
1410;SDS011;700;51.906;8.404;2023-07-24T17:37:54;7.27;;;6.57;;
1410;SDS011;700;51.906;8.404;2023-07-24T17:42:55;9.63;;;8.60;;
1410;SDS011;700;51.906;8.404;2023-07-24T17:47:58;5.90;;;4.30;;
1410;SDS011;700;51.906;8.404;2023-07-24T17:52:59;7.90;;;7.17;;
1410;SDS011;700;51.906;8.404;2023-07-24T17:58:02;8.70;;;6.60;;
1410;SDS011;700;51.906;8.404;2023-07-24T18:03:02;8.80;;;7.70;;
1410;SDS011;700;51.906;8.404;2023-07-24T18:08:03;7.40;;;6.70;;
1410;SDS011;700;51.906;8.404;2023-07-24T18:13:06;8.43;;;7.30;;
1410;SDS011;700;51.906;8.404;2023-07-24T18:18:09;8.30;;;7.50;;
1410;SDS011;700;51.906;8.404;2023-07-24T18:23:10;8.00;;;7.30;;
1410;SDS011;700;51.906;8.404;2023-07-24T18:28:13;9.17;;;8.27;;
1410;SDS011;700;51.906;8.404;2023-07-24T18:33:13;8.13;;;7.10;;
1410;SDS011;700;51.906;8.404;2023-07-24T18:38:14;8.80;;;8.00;;
1410;SDS011;700;51.906;8.404;2023-07-24T18:43:15;5.67;;;5.10;;
1410;SDS011;700;51.906;8.404;2023-07-24T18:48:15;5.80;;;4.93;;
1410;SDS011;700;51.906;8.404;2023-07-24T18:53:16;5.43;;;4.90;;
1410;SDS011;700;51.906;8.404;2023-07-24T18:58:17;5.80;;;5.17;;
1410;SDS011;700;51.906;8.404;2023-07-24T19:03:20;7.87;;;6.57;;
1410;SDS011;700;51.906;8.404;2023-07-24T19:08:20;5.87;;;4.40;;
1410;SDS011;700;51.906;8.404;2023-07-24T19:13:23;7.83;;;5.20;;
1410;SDS011;700;51.906;8.404;2023-07-24T19:18:26;7.93;;;4.80;;
1410;SDS011;700;51.906;8.404;2023-07-24T19:23:27;5.40;;;4.73;;
1410;SDS011;700;51.906;8.404;2023-07-24T19:28:27;5.97;;;5.37;;
1410;SDS011;700;51.906;8.404;2023-07-24T19:33:28;4.83;;;4.23;;
1410;SDS011;700;51.906;8.404;2023-07-24T19:38:30;8.77;;;5.57;;
1410;SDS011;700;51.906;8.404;2023-07-24T19:43:33;5.83;;;4.90;;
1410;SDS011;700;51.906;8.404;2023-07-24T19:48:33;6.40;;;4.57;;
1410;SDS011;700;51.906;8.404;2023-07-24T19:53:34;5.40;;;4.90;;
1410;SDS011;700;51.906;8.404;2023-07-24T19:58:35;5.27;;;4.77;;
1410;SDS011;700;51.906;8.404;2023-07-24T20:03:38;5.50;;;5.00;;
1410;SDS011;700;51.906;8.404;2023-07-24T20:08:41;6.17;;;4.27;;
1410;SDS011;700;51.906;8.404;2023-07-24T20:13:41;4.80;;;4.13;;
1410;SDS011;700;51.906;8.404;2023-07-24T20:18:44;5.30;;;4.80;;
1410;SDS011;700;51.906;8.404;2023-07-24T20:23:48;5.43;;;4.77;;
1410;SDS011;700;51.906;8.404;2023-07-24T20:28:51;5.57;;;4.23;;
1410;SDS011;700;51.906;8.404;2023-07-24T20:33:54;5.07;;;4.50;;
1410;SDS011;700;51.906;8.404;2023-07-24T20:38:56;5.30;;;4.23;;
1410;SDS011;700;51.906;8.404;2023-07-24T20:43:59;7.00;;;4.10;;
1410;SDS011;700;51.906;8.404;2023-07-24T20:49:00;6.10;;;4.73;;
1410;SDS011;700;51.906;8.404;2023-07-24T20:54:01;5.20;;;4.70;;
1410;SDS011;700;51.906;8.404;2023-07-24T20:59:03;6.80;;;4.77;;
1410;SDS011;700;51.906;8.404;2023-07-24T21:04:04;9.23;;;5.10;;
1410;SDS011;700;51.906;8.404;2023-07-24T21:09:05;8.93;;;5.20;;
1410;SDS011;700;51.906;8.404;2023-07-24T21:14:05;8.07;;;4.73;;
1410;SDS011;700;51.906;8.404;2023-07-24T21:19:06;5.77;;;4.37;;
1410;SDS011;700;51.906;8.404;2023-07-24T21:24:07;6.00;;;4.13;;
1410;SDS011;700;51.906;8.404;2023-07-24T21:29:09;6.70;;;3.60;;
1410;SDS011;700;51.906;8.404;2023-07-24T21:34:10;7.80;;;3.23;;
1410;SDS011;700;51.906;8.404;2023-07-24T21:39:11;10.20;;;4.50;;
1410;SDS011;700;51.906;8.404;2023-07-24T21:44:11;10.13;;;3.67;;
1410;SDS011;700;51.906;8.404;2023-07-24T21:49:14;5.30;;;3.70;;
1410;SDS011;700;51.906;8.404;2023-07-24T21:54:15;4.60;;;3.10;;
1410;SDS011;700;51.906;8.404;2023-07-24T21:59:15;5.83;;;2.67;;
1410;SDS011;700;51.906;8.404;2023-07-24T22:04:16;3.50;;;2.33;;
1410;SDS011;700;51.906;8.404;2023-07-24T22:09:20;4.87;;;2.87;;
1410;SDS011;700;51.906;8.404;2023-07-24T22:14:20;7.60;;;2.40;;
1410;SDS011;700;51.906;8.404;2023-07-24T22:19:21;2.17;;;1.60;;
1410;SDS011;700;51.906;8.404;2023-07-24T22:24:26;4.30;;;2.10;;
1410;SDS011;700;51.906;8.404;2023-07-24T22:29:30;4.27;;;2.10;;
1410;SDS011;700;51.906;8.404;2023-07-24T22:34:33;2.47;;;1.60;;
1410;SDS011;700;51.906;8.404;2023-07-24T22:39:36;4.90;;;2.13;;
1410;SDS011;700;51.906;8.404;2023-07-24T22:44:37;6.23;;;2.47;;
1410;SDS011;700;51.906;8.404;2023-07-24T22:49:38;7.60;;;3.10;;
1410;SDS011;700;51.906;8.404;2023-07-24T22:54:38;5.43;;;2.47;;
1410;SDS011;700;51.906;8.404;2023-07-24T22:59:41;6.70;;;2.47;;
1410;SDS011;700;51.906;8.404;2023-07-24T23:04:42;3.57;;;2.20;;
1410;SDS011;700;51.906;8.404;2023-07-24T23:09:43;5.27;;;2.60;;
1410;SDS011;700;51.906;8.404;2023-07-24T23:14:44;5.63;;;2.43;;
1410;SDS011;700;51.906;8.404;2023-07-24T23:19:44;5.83;;;2.47;;
1410;SDS011;700;51.906;8.404;2023-07-24T23:24:45;5.03;;;2.20;;
1410;SDS011;700;51.906;8.404;2023-07-24T23:29:45;4.93;;;2.50;;
1410;SDS011;700;51.906;8.404;2023-07-24T23:34:51;3.80;;;3.30;;
1410;SDS011;700;51.906;8.404;2023-07-24T23:39:52;4.60;;;2.00;;
1410;SDS011;700;51.906;8.404;2023-07-24T23:44:55;4.33;;;2.27;;
1410;SDS011;700;51.906;8.404;2023-07-24T23:49:57;2.67;;;1.80;;
1410;SDS011;700;51.906;8.404;2023-07-24T23:54:58;4.07;;;2.30;;
1410;SDS011;700;51.906;8.404;2023-07-24T23:59:59;3.93;;;2.90;;
